createdAt,value
2018-12-07T00:00:19.084Z,11.90
2018-12-07T00:02:47.437Z,11.90
2018-12-07T00:05:15.749Z,11.90
2018-12-07T00:07:44.159Z,11.90
2018-12-07T00:10:12.476Z,12.00
2018-12-07T00:12:40.889Z,12.00
2018-12-07T00:15:09.216Z,11.90
2018-12-07T00:17:37.600Z,11.90
2018-12-07T00:20:08.452Z,11.90
2018-12-07T00:22:36.825Z,11.90
2018-12-07T00:25:05.392Z,12.00
2018-12-07T00:27:34.005Z,11.90
2018-12-07T00:30:02.385Z,11.90
2018-12-07T00:32:30.716Z,11.90
2018-12-07T00:34:59.113Z,11.90
2018-12-07T00:37:27.537Z,11.90
2018-12-07T00:39:55.863Z,11.90
2018-12-07T00:42:24.283Z,12.00
2018-12-07T00:44:52.632Z,12.00
2018-12-07T00:47:20.990Z,12.00
2018-12-07T00:49:49.323Z,12.00
2018-12-07T00:52:17.760Z,12.00
2018-12-07T00:54:47.334Z,12.00
2018-12-07T00:57:15.680Z,12.00
2018-12-07T00:59:44.028Z,12.00
2018-12-07T01:02:12.468Z,12.00
2018-12-07T01:04:40.808Z,12.00
2018-12-07T01:07:09.172Z,12.00
2018-12-07T01:09:37.508Z,12.00
2018-12-07T01:12:05.896Z,12.00
2018-12-07T01:14:34.231Z,12.10
2018-12-07T01:17:02.552Z,12.10
2018-12-07T01:19:30.980Z,12.00
2018-12-07T01:21:59.303Z,12.00
2018-12-07T01:24:27.626Z,12.00
2018-12-07T01:26:56.000Z,12.10
2018-12-07T01:29:24.336Z,12.00
2018-12-07T01:31:52.676Z,12.00
2018-12-07T01:34:21.032Z,12.00
2018-12-07T01:36:49.339Z,12.00
2018-12-07T01:39:18.056Z,12.00
2018-12-07T01:41:46.388Z,12.00
2018-12-07T01:44:14.736Z,12.00
2018-12-07T01:46:43.075Z,12.00
2018-12-07T01:49:11.452Z,12.00
2018-12-07T01:51:39.816Z,12.10
2018-12-07T01:54:08.176Z,12.10
2018-12-07T01:56:36.516Z,12.10
2018-12-07T01:59:04.898Z,12.10
2018-12-07T02:01:33.233Z,12.10
2018-12-07T02:04:01.709Z,12.10
2018-12-07T02:06:32.576Z,12.10
2018-12-07T02:09:00.948Z,12.10
2018-12-07T02:11:29.288Z,12.10
2018-12-07T02:13:57.620Z,12.10
2018-12-07T02:16:25.988Z,12.10
2018-12-07T02:18:54.371Z,12.10
2018-12-07T02:21:22.680Z,12.20
2018-12-07T02:23:51.083Z,12.20
2018-12-07T02:26:19.416Z,12.20
2018-12-07T02:28:47.743Z,12.20
2018-12-07T02:31:16.119Z,12.20
2018-12-07T02:33:44.444Z,12.20
2018-12-07T02:36:12.779Z,12.20
2018-12-07T02:38:41.163Z,12.20
2018-12-07T02:41:09.517Z,12.20
2018-12-07T02:43:38.021Z,12.20
2018-12-07T02:46:06.344Z,12.20
2018-12-07T02:48:34.723Z,12.20
2018-12-07T02:51:03.056Z,12.20
2018-12-07T02:53:31.398Z,12.20
2018-12-07T02:55:59.749Z,12.20
2018-12-07T02:58:28.087Z,12.20
2018-12-07T03:00:56.752Z,12.10
2018-12-07T03:03:25.215Z,12.10
2018-12-07T03:05:53.539Z,12.10
2018-12-07T03:08:21.894Z,12.10
2018-12-07T03:10:50.253Z,12.10
2018-12-07T03:13:18.662Z,12.10
2018-12-07T03:15:47.098Z,12.10
2018-12-07T03:18:26.848Z,12.10
2018-12-07T03:20:55.812Z,12.10
2018-12-07T03:23:24.146Z,12.10
2018-12-07T03:25:52.927Z,12.10
2018-12-07T03:28:21.384Z,12.10
2018-12-07T03:30:49.713Z,12.10
2018-12-07T03:33:18.162Z,12.10
2018-12-07T03:35:46.487Z,12.10
2018-12-07T03:38:14.907Z,12.10
2018-12-07T03:40:43.239Z,12.20
2018-12-07T03:43:11.594Z,12.20
2018-12-07T03:45:40.176Z,12.20
2018-12-07T03:48:08.504Z,12.20
2018-12-07T03:50:36.860Z,12.20
2018-12-07T03:53:05.209Z,12.20
2018-12-07T03:55:33.539Z,12.30
2018-12-07T03:58:01.916Z,12.30
2018-12-07T04:00:30.257Z,12.30
2018-12-07T04:02:58.639Z,12.30
2018-12-07T04:05:26.981Z,12.20
2018-12-07T04:07:55.299Z,12.20
2018-12-07T04:10:23.661Z,12.20
2018-12-07T04:12:52.020Z,12.20
2018-12-07T04:15:20.340Z,12.20
2018-12-07T04:17:48.748Z,12.20
2018-12-07T04:20:17.080Z,12.20
2018-12-07T04:22:45.412Z,12.20
2018-12-07T04:25:13.727Z,12.20
2018-12-07T04:27:42.071Z,12.20
2018-12-07T04:30:31.222Z,12.20
2018-12-07T04:32:59.626Z,12.20
2018-12-07T04:35:27.947Z,12.20
2018-12-07T04:37:56.394Z,12.20
2018-12-07T04:40:24.763Z,12.20
2018-12-07T04:42:53.080Z,12.20
2018-12-07T04:45:21.973Z,12.20
2018-12-07T04:47:50.305Z,12.30
2018-12-07T04:50:18.620Z,12.30
2018-12-07T04:52:47.017Z,12.30
2018-12-07T04:55:15.349Z,12.30
2018-12-07T04:57:44.660Z,12.30
2018-12-07T05:00:14.332Z,12.30
2018-12-07T05:02:42.783Z,12.30
2018-12-07T05:05:11.342Z,12.30
2018-12-07T05:07:39.752Z,12.30
2018-12-07T05:10:08.305Z,12.30
2018-12-07T05:12:36.695Z,12.30
2018-12-07T05:15:05.694Z,12.30
2018-12-07T05:17:34.053Z,12.30
2018-12-07T05:20:02.440Z,12.30
2018-12-07T05:22:30.790Z,12.30
2018-12-07T05:24:59.132Z,12.30
2018-12-07T05:27:27.480Z,12.30
2018-12-07T05:29:55.808Z,12.30
2018-12-07T05:32:24.213Z,12.30
2018-12-07T05:34:52.568Z,12.30
2018-12-07T05:37:21.002Z,12.30
2018-12-07T05:39:49.424Z,12.30
2018-12-07T05:42:17.779Z,12.30
2018-12-07T05:44:46.198Z,12.30
2018-12-07T05:47:14.567Z,12.30
2018-12-07T05:49:42.902Z,12.30
2018-12-07T05:52:11.400Z,12.30
2018-12-07T05:54:39.731Z,12.30
2018-12-07T05:57:08.301Z,12.30
2018-12-07T05:59:36.636Z,12.30
2018-12-07T06:02:04.996Z,12.30
2018-12-07T06:04:33.326Z,12.30
2018-12-07T06:07:01.657Z,12.30
2018-12-07T06:09:30.064Z,12.30
2018-12-07T06:11:58.411Z,12.30
2018-12-07T06:14:27.060Z,12.30
2018-12-07T06:16:55.385Z,12.30
2018-12-07T06:19:23.697Z,12.30
2018-12-07T06:21:52.351Z,12.20
2018-12-07T06:24:20.686Z,12.30
2018-12-07T06:26:49.016Z,12.30
2018-12-07T06:29:17.536Z,12.30
2018-12-07T06:31:45.872Z,12.30
2018-12-07T06:34:14.235Z,12.30
2018-12-07T06:36:42.639Z,12.20
2018-12-07T06:39:12.004Z,12.30
2018-12-07T06:41:40.349Z,12.20
2018-12-07T06:44:08.789Z,12.30
2018-12-07T06:46:37.183Z,12.30
2018-12-07T06:49:11.070Z,12.30
2018-12-07T06:51:41.551Z,12.30
2018-12-07T06:54:09.908Z,12.30
2018-12-07T06:56:38.291Z,12.20
2018-12-07T06:59:06.652Z,12.20
2018-12-07T07:01:35.075Z,12.30
2018-12-07T07:04:03.511Z,12.30
2018-12-07T07:06:31.836Z,12.30
2018-12-07T07:09:00.612Z,12.30
2018-12-07T07:11:28.948Z,12.30
2018-12-07T07:13:57.284Z,12.30
2018-12-07T07:16:25.648Z,12.30
2018-12-07T07:18:54.190Z,12.30
2018-12-07T07:21:22.532Z,12.20
2018-12-07T07:23:50.924Z,12.20
2018-12-07T07:26:19.345Z,12.20
2018-12-07T07:28:47.744Z,12.20
2018-12-07T07:31:16.064Z,12.20
2018-12-07T07:33:44.420Z,12.20
2018-12-07T07:36:12.740Z,12.20
2018-12-07T07:38:41.184Z,12.20
2018-12-07T07:41:09.529Z,12.20
2018-12-07T07:43:37.982Z,12.20
2018-12-07T07:46:06.389Z,12.20
2018-12-07T07:48:34.775Z,12.20
2018-12-07T07:51:03.801Z,12.20
2018-12-07T07:53:32.161Z,12.20
2018-12-07T07:56:00.477Z,12.20
2018-12-07T07:58:28.792Z,12.20
2018-12-07T08:00:57.148Z,12.20
2018-12-07T08:03:25.486Z,12.20
2018-12-07T08:05:53.887Z,12.20
2018-12-07T08:08:22.220Z,12.20
2018-12-07T08:10:50.706Z,12.20
2018-12-07T08:13:19.022Z,12.20
2018-12-07T08:15:47.390Z,12.20
2018-12-07T08:18:15.718Z,12.20
2018-12-07T08:20:44.041Z,12.20
2018-12-07T08:23:14.962Z,12.20
2018-12-07T08:25:42.890Z,12.30
2018-12-07T08:28:11.255Z,12.20
2018-12-07T08:30:39.568Z,12.30
2018-12-07T08:33:09.241Z,12.30
2018-12-07T08:35:37.604Z,12.30
2018-12-07T08:38:05.936Z,12.20
2018-12-07T08:40:34.473Z,12.30
2018-12-07T08:43:02.891Z,12.30
2018-12-07T08:45:31.252Z,12.30
2018-12-07T08:47:59.601Z,12.30
2018-12-07T08:50:27.996Z,12.40
2018-12-07T08:52:56.328Z,12.50
2018-12-07T08:55:24.744Z,12.60
2018-12-07T08:57:53.076Z,12.60
2018-12-07T09:00:21.484Z,12.60
2018-12-07T09:02:49.812Z,12.50
2018-12-07T09:05:18.204Z,12.60
2018-12-07T09:07:46.575Z,12.60
2018-12-07T09:10:14.932Z,12.60
2018-12-07T09:12:43.302Z,12.60
2018-12-07T09:15:11.650Z,12.60
2018-12-07T09:17:39.984Z,12.60
2018-12-07T09:20:08.791Z,12.70
2018-12-07T09:22:37.328Z,12.60
2018-12-07T09:25:06.211Z,12.70
2018-12-07T09:27:34.579Z,12.60
2018-12-07T09:30:02.900Z,12.60
2018-12-07T09:32:32.192Z,12.60
2018-12-07T09:35:00.643Z,12.60
2018-12-07T09:40:04.010Z,12.60
2018-12-07T09:42:32.382Z,12.50
2018-12-07T09:45:00.789Z,12.60
2018-12-07T09:47:29.201Z,12.50
2018-12-07T09:49:57.541Z,12.50
2018-12-07T09:52:25.899Z,12.50
2018-12-07T09:54:54.246Z,12.50
2018-12-07T09:57:22.563Z,12.50
2018-12-07T09:59:50.976Z,12.50
2018-12-07T10:02:19.308Z,12.50
2018-12-07T10:04:47.637Z,12.50
2018-12-07T10:07:16.000Z,12.50
2018-12-07T10:09:44.320Z,12.50
2018-12-07T10:12:13.948Z,12.50
2018-12-07T10:14:42.279Z,12.60
2018-12-07T10:17:10.635Z,12.60
2018-12-07T10:19:39.281Z,12.60
2018-12-07T10:22:07.602Z,12.60
2018-12-07T10:24:35.931Z,12.60
2018-12-07T10:27:06.836Z,12.60
2018-12-07T10:29:35.367Z,12.60
2018-12-07T10:32:03.855Z,12.60
2018-12-07T10:34:32.418Z,12.70
2018-12-07T10:37:00.816Z,12.60
2018-12-07T10:39:29.156Z,12.60
2018-12-07T10:41:57.531Z,12.60
2018-12-07T10:44:25.899Z,12.60
2018-12-07T10:46:54.531Z,12.70
2018-12-07T10:49:22.875Z,12.80
2018-12-07T10:51:51.318Z,12.80
2018-12-07T10:54:19.752Z,12.80
2018-12-07T10:56:48.162Z,12.80
2018-12-07T10:59:16.591Z,12.80
2018-12-07T11:01:50.714Z,12.90
2018-12-07T11:04:24.846Z,12.90
2018-12-07T11:06:58.685Z,13.00
2018-12-07T11:09:32.421Z,13.10
2018-12-07T11:12:06.256Z,13.20
2018-12-07T11:14:39.905Z,13.30
2018-12-07T11:17:13.740Z,13.30
2018-12-07T11:19:47.548Z,13.50
2018-12-07T11:22:21.260Z,13.50
2018-12-07T11:24:55.200Z,13.20
2018-12-07T11:27:28.980Z,13.00
2018-12-07T11:30:06.587Z,13.00
2018-12-07T11:32:39.334Z,13.00
2018-12-07T11:35:12.104Z,13.10
2018-12-07T11:37:40.617Z,13.10
2018-12-07T11:40:09.001Z,13.10
2018-12-07T11:42:37.760Z,12.90
2018-12-07T11:45:06.237Z,13.00
2018-12-07T11:47:35.242Z,12.90
2018-12-07T11:50:03.778Z,12.90
2018-12-07T11:52:32.136Z,12.90
2018-12-07T11:55:00.494Z,12.90
2018-12-07T11:57:28.957Z,12.90
2018-12-07T11:59:57.284Z,12.80
2018-12-07T12:02:26.426Z,12.90
2018-12-07T12:04:55.094Z,12.90
2018-12-07T12:07:23.589Z,12.90
2018-12-07T12:09:51.935Z,13.00
2018-12-07T12:12:20.349Z,13.00
2018-12-07T12:14:48.682Z,12.90
2018-12-07T12:17:17.027Z,12.90
2018-12-07T12:19:45.363Z,12.80
2018-12-07T12:22:13.789Z,12.90
2018-12-07T12:24:42.121Z,12.80
2018-12-07T12:27:10.480Z,12.80
2018-12-07T12:29:38.828Z,12.80
2018-12-07T12:32:07.182Z,12.80
2018-12-07T12:34:35.524Z,12.70
2018-12-07T12:37:03.922Z,12.70
2018-12-07T12:39:32.356Z,12.70
2018-12-07T12:42:00.908Z,12.70
2018-12-07T12:44:29.271Z,12.80
2018-12-07T12:46:57.653Z,12.90
2018-12-07T12:49:27.736Z,12.80
2018-12-07T12:51:59.629Z,12.80
2018-12-07T12:54:27.951Z,12.80
2018-12-07T12:56:56.304Z,12.70
2018-12-07T12:59:24.664Z,12.70
2018-12-07T13:01:53.184Z,12.70
2018-12-07T13:04:21.537Z,12.70
2018-12-07T13:06:49.892Z,12.70
2018-12-07T13:09:18.251Z,12.60
2018-12-07T13:11:46.730Z,12.60
2018-12-07T13:14:15.096Z,12.60
2018-12-07T13:16:43.643Z,12.50
2018-12-07T13:19:12.272Z,12.30
2018-12-07T13:21:40.607Z,12.20
2018-12-07T13:24:09.002Z,12.20
2018-12-07T13:26:37.327Z,12.10
2018-12-07T13:29:05.690Z,12.00
2018-12-07T13:31:34.075Z,11.90
2018-12-07T13:34:02.473Z,11.90
2018-12-07T13:36:30.809Z,11.80
2018-12-07T13:38:59.169Z,11.80
2018-12-07T13:41:27.954Z,11.80
2018-12-07T13:43:56.642Z,11.70
2018-12-07T13:46:25.426Z,11.60
2018-12-07T13:48:53.947Z,11.60
2018-12-07T13:51:22.650Z,11.70
2018-12-07T13:53:51.084Z,11.70
2018-12-07T13:56:19.485Z,11.60
2018-12-07T13:58:48.056Z,11.60
2018-12-07T14:01:16.527Z,11.60
2018-12-07T14:03:45.098Z,11.60
2018-12-07T14:06:14.083Z,11.60
2018-12-07T14:08:42.561Z,11.60
2018-12-07T14:11:11.056Z,11.70
2018-12-07T14:13:39.595Z,11.70
2018-12-07T14:16:08.196Z,11.80
2018-12-07T14:18:36.995Z,11.90
2018-12-07T14:21:05.458Z,12.00
2018-12-07T14:23:35.804Z,12.00
2018-12-07T14:26:04.453Z,11.90
2018-12-07T14:28:32.998Z,11.90
2018-12-07T14:31:01.543Z,11.90
2018-12-07T14:33:30.054Z,12.00
2018-12-07T14:35:58.646Z,12.00
2018-12-07T14:38:27.115Z,12.00
2018-12-07T14:40:55.579Z,11.90
2018-12-07T14:43:24.040Z,12.00
2018-12-07T14:45:52.533Z,12.00
2018-12-07T14:48:21.028Z,12.00
2018-12-07T14:50:49.664Z,12.00
2018-12-07T14:53:18.040Z,12.00
2018-12-07T14:55:46.547Z,11.90
2018-12-07T14:58:15.304Z,11.90
2018-12-07T15:00:44.038Z,11.90
2018-12-07T15:03:12.752Z,11.90
2018-12-07T15:05:42.474Z,12.00
2018-12-07T15:08:10.981Z,11.90
2018-12-07T15:10:39.397Z,11.90
2018-12-07T15:13:07.957Z,11.90
2018-12-07T15:15:36.586Z,11.90
2018-12-07T15:18:05.222Z,11.90
2018-12-07T15:20:33.641Z,11.90
2018-12-07T15:23:02.343Z,11.90
2018-12-07T15:25:31.181Z,11.90
2018-12-07T15:27:59.818Z,11.90
2018-12-07T15:30:28.390Z,11.90
2018-12-07T15:32:57.301Z,11.90
2018-12-07T15:35:26.100Z,11.90
2018-12-07T15:37:54.618Z,11.90
2018-12-07T15:40:23.116Z,11.90
2018-12-07T15:42:51.817Z,11.90
2018-12-07T15:45:20.345Z,11.90
2018-12-07T15:47:48.703Z,11.90
2018-12-07T15:50:24.890Z,11.90
2018-12-07T15:52:47.743Z,12.00
2018-12-07T15:55:16.220Z,11.90
2018-12-07T15:57:44.754Z,11.80
2018-12-07T16:00:13.302Z,11.80
2018-12-07T16:02:42.245Z,11.80
2018-12-07T16:05:10.810Z,11.80
2018-12-07T16:07:39.368Z,11.80
2018-12-07T16:10:08.510Z,11.80
2018-12-07T16:12:36.978Z,11.80
2018-12-07T16:15:05.824Z,11.80
2018-12-07T16:17:34.374Z,11.70
2018-12-07T16:20:03.003Z,11.80
2018-12-07T16:22:31.482Z,11.80
2018-12-07T16:24:59.919Z,11.70
2018-12-07T16:27:28.471Z,11.70
2018-12-07T16:29:56.969Z,11.80
2018-12-07T16:32:25.386Z,11.70
2018-12-07T16:34:54.002Z,11.70
2018-12-07T16:37:22.534Z,11.70
2018-12-07T16:39:51.273Z,11.70
2018-12-07T16:42:19.937Z,11.80
2018-12-07T16:44:48.589Z,11.80
2018-12-07T16:47:17.141Z,11.70
2018-12-07T16:49:45.519Z,11.80
2018-12-07T16:52:14.068Z,11.80
2018-12-07T16:54:42.656Z,11.80
2018-12-07T16:57:11.292Z,11.80
2018-12-07T16:59:39.924Z,11.80
2018-12-07T17:02:08.656Z,11.70
2018-12-07T17:04:37.395Z,11.70
2018-12-07T17:07:05.919Z,11.70
2018-12-07T17:09:35.060Z,11.80
2018-12-07T17:12:03.577Z,11.80
2018-12-07T17:14:32.366Z,11.70
2018-12-07T17:17:01.039Z,11.70
2018-12-07T17:19:29.683Z,11.70
2018-12-07T17:21:58.386Z,11.70
2018-12-07T17:24:27.046Z,11.80
2018-12-07T17:26:55.413Z,11.80
2018-12-07T17:29:23.954Z,11.80
2018-12-07T17:31:52.453Z,11.80
2018-12-07T17:34:21.165Z,11.80
2018-12-07T17:36:49.616Z,11.80
2018-12-07T17:39:18.590Z,11.80
2018-12-07T17:41:48.445Z,11.80
2018-12-07T17:44:17.028Z,11.80
2018-12-07T17:46:45.421Z,11.80
2018-12-07T17:49:14.146Z,11.80
2018-12-07T17:51:42.836Z,11.80
2018-12-07T17:54:11.606Z,11.70
2018-12-07T17:56:40.315Z,11.80
2018-12-07T17:59:08.785Z,11.70
2018-12-07T18:01:37.349Z,11.70
2018-12-07T18:04:06.211Z,11.70
2018-12-07T18:06:34.791Z,11.70
2018-12-07T18:09:03.621Z,11.70
2018-12-07T18:11:32.460Z,11.60
2018-12-07T18:14:01.078Z,11.60
2018-12-07T18:16:29.667Z,11.50
2018-12-07T18:18:58.500Z,11.60
2018-12-07T18:21:27.066Z,11.50
2018-12-07T18:23:56.059Z,11.50
2018-12-07T18:26:24.498Z,11.40
2018-12-07T18:28:53.156Z,11.40
2018-12-07T18:31:21.771Z,11.50
2018-12-07T18:33:50.292Z,11.50
2018-12-07T18:36:18.829Z,11.40
2018-12-07T18:38:47.346Z,11.40
2018-12-07T18:41:16.048Z,11.40
2018-12-07T18:43:44.999Z,11.40
2018-12-07T18:46:13.518Z,11.40
2018-12-07T18:48:42.614Z,11.40
2018-12-07T18:51:11.279Z,11.30
2018-12-07T18:53:40.022Z,11.30
2018-12-07T18:56:08.786Z,11.30
2018-12-07T18:58:37.314Z,11.20
2018-12-07T19:01:06.317Z,11.20
2018-12-07T19:03:35.205Z,11.20
2018-12-07T19:06:03.911Z,11.20
2018-12-07T19:08:32.399Z,11.20
2018-12-07T19:11:01.036Z,11.10
2018-12-07T19:13:29.782Z,11.10
2018-12-07T19:15:58.503Z,11.10
2018-12-07T19:18:27.076Z,11.10
2018-12-07T19:20:55.446Z,11.10
2018-12-07T19:23:24.034Z,11.10
2018-12-07T19:25:52.635Z,11.10
2018-12-07T19:28:21.329Z,11.10
2018-12-07T19:30:50.057Z,11.10
2018-12-07T19:33:19.285Z,11.10
2018-12-07T19:35:48.311Z,11.10
2018-12-07T19:38:17.057Z,11.00
2018-12-07T19:40:45.695Z,11.00
2018-12-07T19:43:14.152Z,11.00
2018-12-07T19:45:43.009Z,11.00
2018-12-07T19:48:11.839Z,11.00
2018-12-07T19:50:40.452Z,11.00
2018-12-07T19:53:08.937Z,11.00
2018-12-07T19:55:37.408Z,11.00
2018-12-07T19:58:07.161Z,11.00
2018-12-07T20:00:35.891Z,11.00
2018-12-07T20:03:04.557Z,10.90
2018-12-07T20:05:34.150Z,10.90
2018-12-07T20:08:03.017Z,10.90
2018-12-07T20:10:31.821Z,10.90
2018-12-07T20:13:00.539Z,10.90
2018-12-07T20:15:29.162Z,10.90
2018-12-07T20:17:57.701Z,10.90
2018-12-07T20:20:26.551Z,10.90
2018-12-07T20:22:55.266Z,10.90
2018-12-07T20:25:24.241Z,10.80
2018-12-07T20:27:52.895Z,10.80
2018-12-07T20:30:21.352Z,10.30
2018-12-07T20:32:49.808Z,9.20
2018-12-07T20:35:18.592Z,8.60
2018-12-07T20:37:47.220Z,8.60
2018-12-07T20:40:15.782Z,8.70
2018-12-07T20:42:44.274Z,8.70
2018-12-07T20:45:12.833Z,8.60
2018-12-07T20:47:41.654Z,8.50
2018-12-07T20:50:10.255Z,8.40
2018-12-07T20:52:39.126Z,8.40
2018-12-07T20:55:08.018Z,8.30
2018-12-07T20:57:36.732Z,8.30
2018-12-07T21:00:07.188Z,8.30
2018-12-07T21:02:35.819Z,8.20
2018-12-07T21:07:10.038Z,8.30
2018-12-07T21:09:38.618Z,8.20
2018-12-07T21:12:40.780Z,8.00
2018-12-07T21:15:09.601Z,7.90
2018-12-07T21:17:39.110Z,7.90
2018-12-07T21:20:26.218Z,8.00
2018-12-07T21:22:54.853Z,7.90
2018-12-07T21:25:23.587Z,7.90
2018-12-07T21:27:52.149Z,7.90
2018-12-07T21:31:25.548Z,8.00
2018-12-07T21:34:09.762Z,8.00
2018-12-07T21:36:45.151Z,7.90
2018-12-07T21:39:25.306Z,7.90
2018-12-07T21:41:54.181Z,7.90
2018-12-07T21:44:22.891Z,7.90
2018-12-07T21:46:51.550Z,7.90
2018-12-07T21:49:20.187Z,7.90
2018-12-07T21:52:10.863Z,8.00
2018-12-07T21:54:39.397Z,7.90
2018-12-07T21:57:08.089Z,7.90
2018-12-07T21:59:36.895Z,7.90
2018-12-07T22:02:05.651Z,8.00
2018-12-07T22:04:34.483Z,8.00
2018-12-07T22:07:04.069Z,7.90
2018-12-07T22:09:32.868Z,7.90
2018-12-07T22:12:01.726Z,8.00
2018-12-07T22:14:30.509Z,8.10
2018-12-07T22:16:59.378Z,8.20
2018-12-07T22:19:28.214Z,8.20
2018-12-07T22:21:57.367Z,8.30
2018-12-07T22:24:26.236Z,8.20
2018-12-07T22:26:54.916Z,8.20
2018-12-07T22:29:23.561Z,8.20
2018-12-07T22:31:52.071Z,8.20
2018-12-07T22:34:20.920Z,8.20
2018-12-07T22:36:49.439Z,8.10
2018-12-07T22:39:17.898Z,8.00
2018-12-07T22:41:46.497Z,7.80
2018-12-07T22:44:15.146Z,7.90
2018-12-07T22:46:43.588Z,7.90
2018-12-07T22:49:11.912Z,7.90
2018-12-07T22:51:40.434Z,7.90
2018-12-07T22:54:08.894Z,10.10
2018-12-07T22:56:37.361Z,7.90
2018-12-07T22:59:06.253Z,7.90
2018-12-07T23:01:34.829Z,7.90
2018-12-07T23:04:03.393Z,8.00
2018-12-07T23:06:31.725Z,8.00
2018-12-07T23:09:00.081Z,8.10
2018-12-07T23:11:28.500Z,8.10
2018-12-07T23:13:56.904Z,8.10
2018-12-07T23:16:25.268Z,8.10
2018-12-07T23:18:53.867Z,8.00
2018-12-07T23:21:22.235Z,8.10
2018-12-07T23:23:50.607Z,8.10
2018-12-07T23:26:18.995Z,8.10
2018-12-07T23:28:47.449Z,8.10
2018-12-07T23:31:15.804Z,8.10
2018-12-07T23:33:44.140Z,8.10
2018-12-07T23:36:12.604Z,8.20
2018-12-07T23:38:40.947Z,8.10
2018-12-07T23:41:09.472Z,8.10
2018-12-07T23:43:38.742Z,8.10
2018-12-07T23:46:07.120Z,8.10
2018-12-07T23:48:35.646Z,8.10
2018-12-07T23:51:04.004Z,8.10
2018-12-07T23:53:32.799Z,8.00
2018-12-07T23:56:01.106Z,8.00
2018-12-07T23:58:30.188Z,7.90
